createdAt,value
2022-07-25T00:02:26.183Z,13.88
2022-07-25T00:04:59.634Z,12.90
2022-07-25T00:07:33.081Z,9.70
2022-07-25T00:10:06.743Z,11.95
2022-07-25T00:13:04.974Z,11.10
2022-07-25T00:15:38.266Z,11.38
2022-07-25T00:18:36.029Z,14.85
2022-07-25T00:21:09.364Z,13.07
2022-07-25T00:23:42.643Z,11.48
2022-07-25T00:26:17.627Z,11.38
2022-07-25T00:28:50.906Z,19.30
2022-07-25T00:31:24.401Z,10.90
2022-07-25T00:33:57.783Z,11.52
2022-07-25T00:36:30.989Z,17.02
2022-07-25T00:39:05.811Z,10.73
2022-07-25T00:41:39.222Z,10.30
2022-07-25T00:44:26.693Z,15.07
2022-07-25T00:47:00.206Z,11.52
2022-07-25T00:49:33.592Z,11.35
2022-07-25T00:52:07.089Z,12.20
2022-07-25T00:54:40.892Z,11.68
2022-07-25T00:57:14.525Z,11.60
2022-07-25T00:59:48.101Z,10.98
2022-07-25T01:02:21.073Z,14.45
2022-07-25T01:04:55.677Z,11.25
2022-07-25T01:07:29.784Z,10.85
2022-07-25T01:10:03.596Z,11.02
2022-07-25T01:12:49.829Z,10.98
2022-07-25T01:15:24.248Z,12.70
2022-07-25T01:17:57.568Z,13.00
2022-07-25T01:20:33.071Z,12.48
2022-07-25T01:23:06.157Z,11.15
2022-07-25T01:25:39.425Z,12.55
2022-07-25T01:28:12.802Z,10.70
2022-07-25T01:30:46.264Z,12.88
2022-07-25T01:33:23.634Z,15.23
2022-07-25T01:35:56.776Z,12.15
2022-07-25T01:38:30.265Z,12.50
2022-07-25T01:41:03.308Z,13.85
2022-07-25T01:43:36.430Z,11.10
2022-07-25T01:46:09.852Z,11.52
2022-07-25T01:48:43.210Z,9.38
2022-07-25T01:51:16.549Z,11.45
2022-07-25T01:53:53.787Z,13.07
2022-07-25T01:56:26.885Z,14.02
2022-07-25T01:59:02.421Z,14.32
2022-07-25T02:01:35.641Z,11.10
2022-07-25T02:04:09.047Z,12.23
2022-07-25T02:06:42.761Z,11.38
2022-07-25T02:09:16.158Z,12.73
2022-07-25T02:11:49.440Z,11.50
2022-07-25T02:14:23.325Z,10.30
2022-07-25T02:17:21.111Z,11.10
2022-07-25T02:23:32.511Z,10.48
2022-07-25T02:26:06.340Z,13.35
2022-07-25T02:28:39.701Z,17.27
2022-07-25T02:31:13.050Z,13.98
2022-07-25T02:33:46.353Z,11.75
2022-07-25T02:36:19.472Z,14.85
2022-07-25T02:38:53.082Z,11.00
2022-07-25T02:41:26.692Z,13.57
2022-07-25T02:44:00.025Z,11.57
2022-07-25T02:46:33.666Z,11.52
2022-07-25T02:49:07.480Z,13.90
2022-07-25T02:51:40.755Z,12.63
2022-07-25T02:54:14.479Z,10.48
2022-07-25T02:56:47.714Z,14.35
2022-07-25T02:59:20.995Z,10.60
2022-07-25T03:01:54.444Z,11.88
2022-07-25T03:04:28.632Z,13.00
2022-07-25T03:07:02.079Z,11.15
2022-07-25T03:09:35.460Z,11.88
2022-07-25T03:12:08.780Z,14.10
2022-07-25T03:14:41.740Z,12.57
2022-07-25T03:17:14.851Z,12.88
2022-07-25T03:19:48.365Z,12.35
2022-07-25T03:22:22.046Z,14.43
2022-07-25T03:24:54.847Z,13.00
2022-07-25T03:27:28.277Z,13.52
2022-07-25T03:30:01.360Z,13.18
2022-07-25T03:32:34.450Z,12.43
2022-07-25T03:35:08.469Z,12.27
2022-07-25T03:37:41.657Z,16.35
2022-07-25T03:40:16.162Z,14.48
2022-07-25T03:42:49.276Z,12.90
2022-07-25T03:45:22.385Z,15.55
2022-07-25T03:47:55.739Z,18.23
2022-07-25T03:50:28.952Z,14.52
2022-07-25T03:53:02.303Z,14.35
2022-07-25T03:55:35.857Z,14.02
2022-07-25T03:58:09.225Z,13.52
2022-07-25T04:00:42.693Z,13.05
2022-07-25T04:03:15.905Z,14.32
2022-07-25T04:05:49.140Z,13.57
2022-07-25T04:08:22.469Z,13.90
2022-07-25T04:10:55.743Z,14.23
2022-07-25T04:13:29.172Z,13.75
2022-07-25T04:16:02.725Z,14.45
2022-07-25T04:18:37.742Z,13.68
2022-07-25T04:21:11.429Z,12.32
2022-07-25T04:23:44.957Z,11.98
2022-07-25T04:26:18.506Z,15.65
2022-07-25T04:28:51.936Z,15.68
2022-07-25T04:31:26.300Z,12.40
2022-07-25T04:33:59.552Z,16.23
2022-07-25T04:36:32.871Z,16.40
2022-07-25T04:39:06.537Z,11.38
2022-07-25T04:41:39.407Z,10.40
2022-07-25T04:44:12.387Z,15.05
2022-07-25T04:46:45.433Z,13.63
2022-07-25T04:49:18.872Z,13.35
2022-07-25T04:51:52.103Z,15.52
2022-07-25T04:54:25.304Z,15.15
2022-07-25T04:56:59.058Z,17.27
2022-07-25T04:59:32.457Z,18.00
2022-07-25T05:02:05.860Z,16.92
2022-07-25T05:04:44.771Z,16.17
2022-07-25T05:07:18.299Z,15.88
2022-07-25T05:09:51.381Z,14.38
2022-07-25T05:12:24.499Z,16.10
2022-07-25T05:14:57.781Z,16.88
2022-07-25T05:17:31.020Z,13.68
2022-07-25T05:20:04.392Z,14.48
2022-07-25T05:22:37.906Z,15.75
2022-07-25T05:25:12.772Z,14.13
2022-07-25T05:27:45.975Z,13.07
2022-07-25T05:30:19.296Z,14.15
2022-07-25T05:32:52.549Z,16.52
2022-07-25T05:35:25.775Z,18.77
2022-07-25T05:37:59.065Z,16.45
2022-07-25T05:40:32.332Z,13.27
2022-07-25T05:43:05.612Z,15.23
2022-07-25T05:45:38.899Z,18.35
2022-07-25T05:48:12.089Z,15.48
2022-07-25T05:50:46.615Z,14.85
2022-07-25T05:53:19.936Z,11.87
2022-07-25T05:55:53.331Z,14.68
2022-07-25T05:58:29.945Z,15.18
2022-07-25T06:01:03.373Z,15.43
2022-07-25T06:03:36.685Z,14.75
2022-07-25T06:06:10.296Z,12.95
2022-07-25T06:08:43.385Z,16.38
2022-07-25T06:11:51.116Z,13.18
2022-07-25T06:14:33.326Z,11.15
2022-07-25T06:17:06.746Z,15.38
2022-07-25T06:19:39.894Z,12.30
2022-07-25T06:22:14.683Z,12.50
2022-07-25T06:24:47.824Z,12.68
2022-07-25T06:27:23.101Z,12.80
2022-07-25T06:29:59.413Z,13.80
2022-07-25T06:32:32.220Z,12.27
2022-07-25T06:35:05.666Z,17.63
2022-07-25T06:37:40.136Z,10.50
2022-07-25T06:40:13.868Z,11.60
2022-07-25T06:42:48.590Z,17.00
2022-07-25T06:47:55.250Z,12.85
2022-07-25T06:50:28.223Z,11.68
2022-07-25T06:53:01.506Z,15.32
2022-07-25T06:56:00.385Z,11.10
2022-07-25T06:58:33.581Z,12.50
2022-07-25T07:01:06.937Z,16.63
2022-07-25T07:03:40.613Z,16.80
2022-07-25T07:06:14.268Z,15.98
2022-07-25T07:08:47.610Z,11.63
2022-07-25T07:11:20.667Z,14.23
2022-07-25T07:13:53.614Z,14.10
2022-07-25T07:16:26.875Z,15.43
2022-07-25T07:18:59.735Z,14.95
2022-07-25T07:21:32.846Z,12.57
2022-07-25T07:24:05.885Z,12.93
2022-07-25T07:26:56.864Z,15.68
2022-07-25T07:29:29.726Z,14.23
2022-07-25T07:32:02.580Z,13.68
2022-07-25T07:34:35.856Z,11.25
2022-07-25T07:37:08.704Z,12.77
2022-07-25T07:39:42.055Z,13.02
2022-07-25T07:42:14.899Z,13.05
2022-07-25T07:44:48.052Z,13.30
2022-07-25T07:47:22.142Z,15.50
2022-07-25T07:49:55.143Z,15.52
2022-07-25T07:53:30.327Z,17.13
2022-07-25T07:56:03.542Z,18.73
2022-07-25T07:58:36.541Z,12.73
2022-07-25T08:01:09.864Z,13.02
2022-07-25T08:03:42.508Z,11.55
2022-07-25T08:06:15.662Z,14.55
2022-07-25T08:08:48.495Z,15.88
2022-07-25T08:11:21.693Z,18.02
2022-07-25T08:13:54.534Z,15.18
2022-07-25T08:16:27.823Z,13.82
2022-07-25T08:19:00.898Z,17.65
2022-07-25T08:21:34.000Z,20.08
2022-07-25T08:24:07.390Z,15.30
2022-07-25T08:26:40.732Z,14.48
2022-07-25T08:29:26.225Z,17.05
2022-07-25T08:32:01.042Z,20.75
2022-07-25T08:34:34.455Z,19.05
2022-07-25T08:37:07.209Z,16.70
2022-07-25T08:39:41.942Z,19.63
2022-07-25T08:42:16.178Z,15.88
2022-07-25T08:45:52.975Z,10.90
2022-07-25T08:48:27.344Z,17.13
2022-07-25T08:51:00.802Z,11.48
2022-07-25T08:53:35.113Z,15.07
2022-07-25T08:56:34.161Z,18.40
2022-07-25T08:59:07.096Z,17.20
2022-07-25T09:01:41.725Z,14.65
2022-07-25T09:04:14.888Z,17.23
2022-07-25T09:06:52.973Z,17.70
2022-07-25T09:09:38.616Z,20.92
2022-07-25T09:13:20.898Z,16.98
2022-07-25T09:20:09.935Z,21.92
2022-07-25T09:22:46.545Z,14.98
2022-07-25T09:28:43.110Z,25.45
2022-07-25T09:31:19.494Z,22.60
2022-07-25T09:34:00.881Z,17.40
2022-07-25T09:36:36.177Z,16.98
2022-07-25T09:39:09.426Z,16.40
2022-07-25T09:41:43.540Z,16.70
2022-07-25T09:44:18.193Z,23.02
2022-07-25T09:46:51.725Z,14.45
2022-07-25T09:49:24.961Z,21.77
2022-07-25T09:51:58.145Z,18.88
2022-07-25T09:54:34.350Z,14.38
2022-07-25T10:06:21.505Z,20.98
2022-07-25T10:13:32.913Z,13.50
2022-07-25T10:16:17.358Z,17.00
2022-07-25T10:21:29.665Z,14.73
2022-07-25T10:24:03.659Z,13.93
2022-07-25T10:30:43.926Z,12.52
2022-07-25T10:33:22.174Z,12.68
2022-07-25T10:35:55.933Z,15.15
2022-07-25T10:38:34.411Z,13.73
2022-07-25T10:45:45.580Z,11.48
2022-07-25T10:56:08.847Z,14.90
2022-07-25T10:58:49.755Z,14.95
2022-07-25T11:02:42.282Z,13.98
2022-07-25T11:05:15.537Z,12.10
2022-07-25T11:08:20.155Z,12.57
2022-07-25T11:10:53.915Z,14.25
2022-07-25T11:13:56.037Z,13.77
2022-07-25T11:16:30.205Z,16.80
2022-07-25T11:19:04.632Z,11.70
2022-07-25T11:21:50.011Z,12.45
2022-07-25T11:24:34.798Z,13.50
2022-07-25T11:27:12.724Z,11.90
2022-07-25T11:29:47.011Z,12.63
2022-07-25T11:32:20.498Z,9.93
2022-07-25T11:34:54.765Z,13.43
2022-07-25T11:37:28.276Z,12.38
2022-07-25T11:40:02.594Z,10.63
2022-07-25T11:42:44.257Z,14.80
2022-07-25T11:45:45.887Z,10.38
2022-07-25T11:48:22.507Z,10.80
2022-07-25T11:50:57.662Z,9.90
2022-07-25T11:53:41.418Z,12.32
2022-07-25T11:56:42.605Z,11.07
2022-07-25T11:59:17.687Z,15.05
2022-07-25T12:01:52.635Z,12.93
2022-07-25T12:04:26.105Z,10.07
2022-07-25T12:07:06.540Z,12.10
2022-07-25T12:09:42.588Z,12.00
2022-07-25T12:12:16.178Z,12.18
2022-07-25T12:14:49.633Z,17.65
2022-07-25T12:17:24.619Z,13.45
2022-07-25T12:19:58.347Z,10.23
2022-07-25T12:22:32.280Z,10.98
2022-07-25T12:25:07.054Z,9.43
2022-07-25T12:30:15.397Z,10.68
2022-07-25T12:35:23.425Z,14.40
2022-07-25T12:37:57.434Z,11.30
2022-07-25T12:40:34.475Z,11.57
2022-07-25T12:43:08.313Z,12.35
2022-07-25T12:45:43.068Z,9.35
2022-07-25T12:50:51.023Z,10.70
2022-07-25T12:53:24.151Z,9.85
2022-07-25T12:55:58.144Z,11.88
2022-07-25T12:58:31.281Z,15.35
2022-07-25T13:01:06.608Z,14.95
2022-07-25T13:03:41.555Z,11.48
2022-07-25T13:14:06.855Z,15.98
2022-07-25T13:20:57.684Z,14.65
2022-07-25T13:23:31.439Z,15.15
2022-07-25T13:26:08.251Z,10.98
2022-07-25T13:28:41.911Z,9.15
2022-07-25T13:31:15.623Z,10.53
2022-07-25T13:33:50.083Z,13.13
2022-07-25T13:36:23.361Z,10.48
2022-07-25T13:38:56.613Z,9.93
2022-07-25T13:41:29.785Z,18.45
2022-07-25T13:44:06.585Z,11.98
2022-07-25T13:51:00.393Z,12.70
2022-07-25T13:56:06.717Z,12.45
2022-07-25T13:58:40.000Z,10.68
2022-07-25T14:01:13.548Z,12.50
2022-07-25T14:08:23.080Z,10.40
2022-07-25T14:10:56.045Z,8.75
2022-07-25T14:13:28.996Z,12.32
2022-07-25T14:16:02.347Z,11.13
2022-07-25T14:18:35.760Z,12.50
2022-07-25T14:21:08.749Z,10.43
2022-07-25T14:23:41.868Z,10.52
2022-07-25T14:26:15.136Z,11.73
2022-07-25T14:28:48.208Z,12.50
2022-07-25T14:31:21.807Z,11.85
2022-07-25T14:33:54.884Z,9.88
2022-07-25T14:36:29.470Z,10.00
2022-07-25T14:39:04.218Z,9.88
2022-07-25T14:41:38.039Z,11.75
2022-07-25T14:44:11.300Z,11.27
2022-07-25T14:46:44.893Z,11.20
2022-07-25T14:49:17.906Z,12.85
2022-07-25T14:52:04.308Z,12.88
2022-07-25T14:54:39.165Z,10.32
2022-07-25T14:57:12.631Z,8.30
2022-07-25T14:59:46.361Z,11.07
2022-07-25T15:02:20.073Z,10.68
2022-07-25T15:04:53.332Z,9.88
2022-07-25T15:07:26.681Z,11.15
2022-07-25T15:10:00.218Z,13.07
2022-07-25T15:12:33.116Z,10.77
2022-07-25T15:15:10.642Z,12.30
2022-07-25T15:17:46.233Z,10.32
2022-07-25T15:20:19.253Z,12.38
2022-07-25T15:22:52.736Z,10.77
2022-07-25T15:25:59.984Z,12.18
2022-07-25T15:28:43.748Z,12.82
2022-07-25T15:31:17.747Z,13.90
2022-07-25T15:33:51.748Z,12.13
2022-07-25T15:36:29.394Z,16.67
2022-07-25T15:39:02.942Z,11.30
2022-07-25T15:41:36.157Z,11.27
2022-07-25T15:44:09.131Z,11.40
2022-07-25T15:46:42.193Z,10.23
2022-07-25T15:49:16.591Z,13.95
2022-07-25T15:51:49.963Z,18.98
2022-07-25T15:54:27.706Z,11.98
2022-07-25T15:57:03.615Z,14.35
2022-07-25T15:59:37.306Z,10.70
2022-07-25T16:02:13.571Z,11.25
2022-07-25T16:04:46.938Z,12.00
2022-07-25T16:07:21.092Z,9.85
2022-07-25T16:10:21.860Z,13.93
2022-07-25T16:17:19.743Z,10.88
2022-07-25T16:19:54.931Z,8.30
2022-07-25T16:22:28.131Z,8.18
2022-07-25T16:25:01.984Z,12.73
2022-07-25T16:27:35.434Z,12.60
2022-07-25T16:30:09.689Z,10.27
2022-07-25T16:32:42.724Z,12.43
2022-07-25T16:35:15.928Z,10.50
2022-07-25T16:37:49.324Z,13.55
2022-07-25T16:45:00.660Z,8.02
2022-07-25T16:47:33.804Z,11.05
2022-07-25T16:50:08.519Z,10.98
2022-07-25T16:52:41.614Z,8.40
2022-07-25T16:55:17.812Z,9.77
2022-07-25T16:57:52.644Z,9.80
2022-07-25T17:00:25.701Z,10.05
2022-07-25T17:03:01.010Z,10.20
2022-07-25T17:05:35.511Z,10.45
2022-07-25T17:08:08.794Z,9.90
2022-07-25T17:10:42.066Z,7.47
2022-07-25T17:13:17.039Z,10.73
2022-07-25T17:15:50.044Z,7.13
2022-07-25T17:18:28.901Z,8.82
2022-07-25T17:21:02.860Z,8.55
2022-07-25T17:23:36.558Z,9.35
2022-07-25T17:26:09.436Z,13.35
2022-07-25T17:28:42.467Z,13.73
2022-07-25T17:31:15.872Z,8.32
2022-07-25T17:33:49.990Z,10.45
2022-07-25T17:36:23.212Z,11.47
2022-07-25T17:53:25.577Z,9.68
2022-07-25T18:44:43.213Z,12.75
2022-07-25T18:47:19.078Z,11.80
2022-07-25T18:49:54.419Z,14.00
2022-07-25T18:52:29.053Z,11.55
2022-07-25T18:55:07.463Z,10.13
2022-07-25T18:57:41.631Z,16.80
2022-07-25T19:00:16.191Z,13.17
2022-07-25T19:02:49.621Z,16.55
2022-07-25T19:05:23.182Z,10.82
2022-07-25T19:08:04.488Z,13.57
2022-07-25T19:10:38.861Z,12.73
2022-07-25T19:13:26.829Z,10.70
2022-07-25T19:16:05.879Z,12.02
2022-07-25T19:18:41.968Z,11.23
2022-07-25T19:21:16.603Z,10.50
2022-07-25T19:23:51.369Z,11.93
2022-07-25T19:26:26.998Z,12.15
2022-07-25T19:31:41.141Z,13.55
2022-07-25T19:34:17.078Z,12.50
2022-07-25T19:36:55.413Z,14.63
2022-07-25T19:39:32.564Z,8.95
2022-07-25T19:42:12.263Z,11.85
2022-07-25T19:44:48.622Z,12.30
2022-07-25T19:47:26.596Z,11.70
2022-07-25T19:50:01.956Z,12.80
2022-07-25T19:52:40.790Z,11.57
2022-07-25T19:55:17.333Z,13.60
2022-07-25T19:57:56.894Z,11.52
2022-07-25T20:00:33.800Z,11.38
2022-07-25T20:03:09.395Z,13.43
2022-07-25T20:05:44.308Z,11.52
2022-07-25T20:08:23.360Z,12.93
2022-07-25T20:10:59.460Z,10.13
2022-07-25T20:13:36.898Z,11.07
2022-07-25T20:16:13.331Z,10.63
2022-07-25T20:18:48.158Z,11.30
2022-07-25T20:21:22.873Z,27.90
2022-07-25T20:23:57.196Z,37.40
2022-07-25T20:26:33.914Z,53.28
2022-07-25T20:29:10.912Z,36.63
2022-07-25T20:31:47.706Z,44.25
2022-07-25T20:34:23.665Z,35.60
2022-07-25T20:37:01.380Z,38.53
2022-07-25T20:39:39.995Z,25.30
2022-07-25T20:42:16.556Z,32.92
2022-07-25T20:44:51.833Z,42.22
2022-07-25T20:47:27.925Z,28.25
2022-07-25T20:50:03.497Z,21.67
2022-07-25T20:52:39.888Z,18.40
2022-07-25T20:55:15.699Z,24.52
2022-07-25T20:57:51.840Z,16.27
2022-07-25T21:00:29.676Z,14.88
2022-07-25T21:03:08.223Z,12.15
2022-07-25T21:06:07.433Z,10.07
2022-07-25T21:08:43.375Z,12.75
2022-07-25T21:11:17.687Z,12.15
2022-07-25T22:24:04.042Z,9.60
2022-07-25T22:26:37.479Z,8.35
2022-07-25T22:29:10.906Z,9.10
2022-07-25T22:31:45.131Z,11.43
2022-07-25T22:34:18.582Z,9.88
2022-07-25T22:36:51.892Z,9.25
2022-07-25T22:39:25.318Z,9.95
2022-07-25T22:41:58.533Z,9.77
2022-07-25T22:44:31.425Z,9.30
2022-07-25T22:47:04.585Z,9.30
2022-07-25T22:49:37.882Z,8.70
2022-07-25T22:52:11.000Z,8.13
2022-07-25T22:54:44.128Z,8.25
2022-07-25T22:57:17.340Z,8.27
2022-07-25T22:59:51.632Z,12.52
2022-07-25T23:02:24.532Z,10.03
2022-07-25T23:04:57.831Z,8.95
2022-07-25T23:07:31.219Z,10.48
2022-07-25T23:10:07.459Z,12.27
2022-07-25T23:12:40.901Z,9.18
2022-07-25T23:15:14.058Z,12.70
2022-07-25T23:17:47.594Z,9.75
2022-07-25T23:20:20.542Z,10.13
2022-07-25T23:22:53.642Z,10.32
2022-07-25T23:25:30.398Z,11.32
2022-07-25T23:28:03.399Z,11.48
2022-07-25T23:30:40.406Z,9.00
2022-07-25T23:33:13.932Z,11.48
2022-07-25T23:35:48.028Z,11.57
2022-07-25T23:38:24.004Z,10.85
2022-07-25T23:40:57.533Z,9.38
2022-07-25T23:43:54.992Z,10.38
2022-07-25T23:46:29.198Z,13.82
2022-07-25T23:49:03.062Z,12.55
2022-07-25T23:51:37.140Z,12.88
2022-07-25T23:54:10.445Z,13.70
2022-07-25T23:56:43.900Z,14.98
2022-07-25T23:59:17.100Z,13.50
